createdAt,value
2022-09-13T00:02:18.215Z,19.90
2022-09-13T00:07:22.958Z,19.91
2022-09-13T00:12:26.127Z,19.86
2022-09-13T00:17:30.761Z,19.86
2022-09-13T00:22:34.142Z,19.85
2022-09-13T00:27:37.917Z,19.87
2022-09-13T00:32:42.361Z,19.84
2022-09-13T00:37:46.189Z,19.80
2022-09-13T00:42:49.431Z,19.49
2022-09-13T00:47:58.473Z,19.43
2022-09-13T00:53:06.653Z,19.28
2022-09-13T00:58:14.621Z,19.19
2022-09-13T01:03:23.037Z,19.31
2022-09-13T01:08:26.416Z,19.43
2022-09-13T01:13:33.231Z,19.54
2022-09-13T01:18:37.920Z,19.58
2022-09-13T01:23:57.894Z,19.60
2022-09-13T01:29:26.524Z,19.59
2022-09-13T01:34:40.419Z,19.56
2022-09-13T01:39:59.976Z,19.58
2022-09-13T01:45:14.885Z,19.52
2022-09-13T01:50:24.870Z,19.57
2022-09-13T01:55:35.695Z,19.59
2022-09-13T02:00:46.655Z,19.47
2022-09-13T02:05:56.411Z,19.12
2022-09-13T02:11:05.458Z,19.06
2022-09-13T02:16:14.662Z,18.91
2022-09-13T02:21:23.743Z,18.81
2022-09-13T02:26:29.871Z,18.85
2022-09-13T02:31:40.681Z,18.88
2022-09-13T02:36:47.375Z,18.94
2022-09-13T02:41:55.445Z,18.97
2022-09-13T02:47:12.207Z,19.12
2022-09-13T02:52:23.323Z,19.21
2022-09-13T02:57:33.661Z,19.25
2022-09-13T03:02:40.132Z,19.30
2022-09-13T03:07:44.588Z,19.35
2022-09-13T03:13:23.116Z,19.35
2022-09-13T03:18:41.280Z,19.37
2022-09-13T03:23:58.676Z,19.38
2022-09-13T03:29:12.448Z,19.34
2022-09-13T03:34:23.731Z,19.29
2022-09-13T03:39:41.695Z,19.28
2022-09-13T03:44:48.239Z,19.27
2022-09-13T03:49:52.923Z,19.26
2022-09-13T03:54:59.182Z,19.26
2022-09-13T04:00:02.471Z,19.27
2022-09-13T04:05:15.045Z,19.26
2022-09-13T04:10:19.529Z,19.30
2022-09-13T04:15:23.061Z,19.26
2022-09-13T04:20:26.408Z,19.24
2022-09-13T04:25:30.784Z,19.21
2022-09-13T04:30:33.794Z,19.18
2022-09-13T04:35:36.931Z,19.15
2022-09-13T04:40:44.614Z,19.05
2022-09-13T04:45:47.746Z,19.13
2022-09-13T04:50:50.755Z,19.11
2022-09-13T04:55:55.141Z,19.08
2022-09-13T05:01:02.533Z,19.04
2022-09-13T05:06:06.473Z,19.05
2022-09-13T05:11:11.623Z,19.03
2022-09-13T05:16:14.680Z,19.03
2022-09-13T05:21:18.650Z,19.01
2022-09-13T05:26:26.019Z,18.97
2022-09-13T05:31:31.972Z,18.95
2022-09-13T05:36:35.723Z,18.95
2022-09-13T05:41:43.149Z,18.92
2022-09-13T05:46:48.826Z,18.93
2022-09-13T05:51:51.746Z,18.94
2022-09-13T05:56:57.652Z,19.00
2022-09-13T06:02:00.646Z,19.10
2022-09-13T06:07:03.636Z,19.24
2022-09-13T06:12:08.177Z,19.29
2022-09-13T06:17:11.330Z,19.34
2022-09-13T06:22:14.251Z,19.34
2022-09-13T06:27:19.626Z,19.36
2022-09-13T06:32:22.875Z,19.35
2022-09-13T06:37:26.523Z,19.45
2022-09-13T06:42:31.115Z,19.56
2022-09-13T06:47:39.658Z,19.63
2022-09-13T06:52:43.292Z,19.69
2022-09-13T06:57:48.876Z,19.79
2022-09-13T07:02:52.822Z,19.90
2022-09-13T07:07:55.855Z,20.01
2022-09-13T07:13:00.308Z,20.07
2022-09-13T07:18:03.510Z,20.17
2022-09-13T07:23:06.547Z,20.27
2022-09-13T07:28:11.209Z,20.37
2022-09-13T07:33:14.308Z,20.45
2022-09-13T07:38:17.318Z,20.61
2022-09-13T07:43:21.686Z,20.81
2022-09-13T07:48:24.951Z,21.02
2022-09-13T07:53:27.883Z,21.10
2022-09-13T07:58:32.737Z,21.20
2022-09-13T08:03:42.768Z,21.41
2022-09-13T08:08:45.968Z,21.49
2022-09-13T08:13:51.698Z,21.61
2022-09-13T08:18:56.370Z,21.81
2022-09-13T08:24:00.784Z,22.06
2022-09-13T08:29:09.969Z,22.15
2022-09-13T08:34:14.734Z,22.30
2022-09-13T08:39:18.851Z,22.46
2022-09-13T08:44:29.629Z,22.59
2022-09-13T08:49:36.829Z,22.54
2022-09-13T08:54:42.833Z,22.70
2022-09-13T08:59:55.640Z,22.80
2022-09-13T09:05:06.932Z,23.12
2022-09-13T09:10:17.511Z,23.32
2022-09-13T09:15:27.947Z,23.21
2022-09-13T09:20:33.752Z,23.48
2022-09-13T09:25:36.965Z,23.31
2022-09-13T09:30:52.793Z,23.26
2022-09-13T09:36:04.907Z,23.53
2022-09-13T09:41:14.545Z,23.92
2022-09-13T09:46:27.390Z,24.19
2022-09-13T09:51:31.557Z,24.11
2022-09-13T09:56:36.846Z,24.22
2022-09-13T10:01:48.332Z,24.39
2022-09-13T10:06:52.915Z,24.51
2022-09-13T10:11:57.284Z,24.72
2022-09-13T10:17:08.042Z,24.89
2022-09-13T10:22:13.459Z,25.53
2022-09-13T10:27:34.524Z,25.18
2022-09-13T10:32:39.100Z,24.85
2022-09-13T10:37:47.213Z,25.05
2022-09-13T10:42:56.417Z,24.94
2022-09-13T10:48:07.196Z,25.45
2022-09-13T10:53:34.452Z,25.72
2022-09-13T10:58:39.893Z,25.69
2022-09-13T11:04:03.803Z,25.62
2022-09-13T11:09:13.702Z,25.10
2022-09-13T11:14:38.204Z,25.23
2022-09-13T11:20:22.976Z,25.33
2022-09-13T11:25:44.615Z,25.55
2022-09-13T11:31:02.135Z,25.51
2022-09-13T11:36:29.824Z,25.30
2022-09-13T11:41:43.778Z,25.34
2022-09-13T11:46:53.947Z,25.52
2022-09-13T11:52:09.748Z,25.58
2022-09-13T11:57:19.812Z,25.84
2022-09-13T12:02:32.514Z,26.08
2022-09-13T12:07:40.161Z,26.12
2022-09-13T12:12:49.532Z,25.94
2022-09-13T12:17:58.295Z,25.51
2022-09-13T12:23:04.496Z,25.29
2022-09-13T12:28:17.914Z,25.02
2022-09-13T12:33:21.387Z,25.12
2022-09-13T12:38:41.420Z,25.33
2022-09-13T12:44:33.743Z,25.32
2022-09-13T12:49:58.794Z,25.88
2022-09-13T12:55:47.409Z,25.93
2022-09-13T13:01:12.715Z,25.91
2022-09-13T13:06:27.362Z,26.16
2022-09-13T13:11:42.591Z,26.03
2022-09-13T13:16:48.531Z,26.24
2022-09-13T13:21:51.611Z,26.25
2022-09-13T13:26:55.923Z,25.72
2022-09-13T13:32:14.839Z,25.70
2022-09-13T13:37:36.401Z,25.80
2022-09-13T13:42:45.214Z,25.51
2022-09-13T13:48:15.629Z,25.92
2022-09-13T13:53:23.721Z,26.01
2022-09-13T13:58:32.979Z,25.95
2022-09-13T14:04:25.785Z,25.74
2022-09-13T14:09:38.944Z,26.06
2022-09-13T14:15:01.716Z,26.03
2022-09-13T14:20:12.050Z,26.07
2022-09-13T14:25:23.842Z,25.93
2022-09-13T14:30:32.010Z,25.86
2022-09-13T14:35:37.994Z,25.99
2022-09-13T14:40:41.529Z,25.88
2022-09-13T14:45:48.053Z,25.55
2022-09-13T14:50:58.416Z,25.33
2022-09-13T14:56:07.051Z,25.43
2022-09-13T15:01:16.302Z,25.72
2022-09-13T15:06:26.633Z,25.84
2022-09-13T15:11:33.233Z,25.81
2022-09-13T15:16:36.631Z,25.62
2022-09-13T15:21:41.004Z,25.47
2022-09-13T15:26:43.960Z,25.49
2022-09-13T15:31:47.042Z,25.14
2022-09-13T15:37:11.495Z,25.00
2022-09-13T15:42:15.191Z,24.87
2022-09-13T15:47:20.251Z,24.71
2022-09-13T15:52:24.633Z,24.58
2022-09-13T15:57:30.021Z,24.40
2022-09-13T16:02:35.849Z,24.31
2022-09-13T16:07:41.003Z,24.13
2022-09-13T16:12:44.014Z,24.16
2022-09-13T16:17:47.730Z,23.95
2022-09-13T16:22:52.131Z,23.59
2022-09-13T16:27:55.344Z,23.48
2022-09-13T16:32:58.945Z,23.33
2022-09-13T16:38:03.292Z,23.18
2022-09-13T16:43:06.216Z,23.14
2022-09-13T16:48:12.930Z,23.07
2022-09-13T16:53:17.329Z,23.02
2022-09-13T16:58:20.550Z,22.94
2022-09-13T17:03:23.661Z,22.85
2022-09-13T17:08:28.772Z,22.71
2022-09-13T17:13:31.883Z,22.52
2022-09-13T17:18:39.771Z,22.35
2022-09-13T17:23:44.255Z,22.12
2022-09-13T17:28:52.644Z,22.05
2022-09-13T17:33:55.844Z,21.90
2022-09-13T17:39:00.913Z,21.75
2022-09-13T17:44:06.378Z,21.61
2022-09-13T17:49:12.671Z,21.54
2022-09-13T17:54:17.025Z,21.41
2022-09-13T17:59:21.907Z,21.36
2022-09-13T18:04:24.997Z,21.25
2022-09-13T18:09:29.439Z,21.20
2022-09-13T18:14:32.875Z,21.10
2022-09-13T18:19:45.896Z,21.03
2022-09-13T18:24:50.992Z,20.97
2022-09-13T18:29:54.119Z,20.92
2022-09-13T18:34:57.328Z,20.82
2022-09-13T18:40:01.975Z,20.72
2022-09-13T18:45:05.713Z,20.57
2022-09-13T18:50:17.944Z,20.45
2022-09-13T18:55:25.433Z,20.42
2022-09-13T19:00:32.784Z,20.26
2022-09-13T19:05:39.505Z,20.10
2022-09-13T19:10:45.509Z,19.97
2022-09-13T19:15:49.317Z,19.84
2022-09-13T19:20:53.797Z,19.70
2022-09-13T19:26:04.240Z,19.61
2022-09-13T19:31:09.329Z,19.51
2022-09-13T19:36:15.106Z,19.39
2022-09-13T19:41:23.752Z,19.29
2022-09-13T19:46:28.588Z,19.19
2022-09-13T19:51:33.280Z,19.10
2022-09-13T19:56:40.556Z,19.12
2022-09-13T20:01:46.158Z,19.07
2022-09-13T20:06:50.760Z,19.04
2022-09-13T20:12:00.576Z,18.98
2022-09-13T20:17:04.270Z,18.91
2022-09-13T20:22:09.912Z,18.89
2022-09-13T20:27:14.545Z,18.86
2022-09-13T20:32:17.465Z,18.82
2022-09-13T20:37:22.527Z,18.83
2022-09-13T20:42:27.077Z,18.81
2022-09-13T20:47:30.061Z,18.82
2022-09-13T20:52:33.411Z,18.83
2022-09-13T20:57:41.241Z,18.82
2022-09-13T21:02:44.596Z,18.72
2022-09-13T21:08:05.031Z,18.63
2022-09-13T21:13:11.177Z,18.57
2022-09-13T21:18:14.120Z,18.54
2022-09-13T21:23:17.227Z,18.51
2022-09-13T21:28:21.609Z,18.48
2022-09-13T21:33:24.781Z,18.44
2022-09-13T21:38:29.463Z,18.41
2022-09-13T21:43:35.144Z,18.45
2022-09-13T21:48:38.039Z,18.42
2022-09-13T21:53:41.022Z,18.43
2022-09-13T21:58:49.705Z,18.44
2022-09-13T22:03:54.023Z,18.48
2022-09-13T22:08:59.499Z,18.34
2022-09-13T22:14:03.996Z,18.35
2022-09-13T22:19:11.027Z,18.34
2022-09-13T22:24:16.518Z,18.37
2022-09-13T22:29:22.153Z,18.31
2022-09-13T22:34:26.627Z,18.32
2022-09-13T22:39:29.647Z,18.34
2022-09-13T22:44:34.445Z,18.33
2022-09-13T22:49:39.623Z,18.27
2022-09-13T22:54:43.504Z,18.26
2022-09-13T22:59:47.938Z,18.28
2022-09-13T23:04:51.062Z,18.17
2022-09-13T23:09:54.090Z,18.04
2022-09-13T23:14:58.917Z,17.92
2022-09-13T23:20:05.934Z,17.89
2022-09-13T23:25:15.804Z,17.87
2022-09-13T23:30:23.733Z,17.85
2022-09-13T23:35:33.442Z,17.84
2022-09-13T23:40:37.070Z,17.55
2022-09-13T23:45:45.824Z,17.39
2022-09-13T23:50:49.014Z,17.27
2022-09-13T23:55:52.078Z,17.12
